sensor_id;sensor_type;location;lat;lon;timestamp;P1;durP1;ratioP1;P2;durP2;ratioP2
53483;SDS011;75581;50.088;19.966;2024-03-02T00:01:01;60.90;;;34.10;;
53483;SDS011;75581;50.088;19.966;2024-03-02T00:03:44;58.20;;;32.80;;
53483;SDS011;75581;50.088;19.966;2024-03-02T00:06:13;57.60;;;32.60;;
53483;SDS011;75581;50.088;19.966;2024-03-02T00:08:42;57.30;;;32.30;;
53483;SDS011;75581;50.088;19.966;2024-03-02T00:11:11;52.80;;;31.30;;
53483;SDS011;75581;50.088;19.966;2024-03-02T00:13:42;57.40;;;30.70;;
53483;SDS011;75581;50.088;19.966;2024-03-02T00:16:11;57.10;;;31.40;;
53483;SDS011;75581;50.088;19.966;2024-03-02T00:18:41;55.60;;;31.30;;
53483;SDS011;75581;50.088;19.966;2024-03-02T00:21:11;52.40;;;31.20;;
53483;SDS011;75581;50.088;19.966;2024-03-02T00:23:43;55.90;;;31.40;;
53483;SDS011;75581;50.088;19.966;2024-03-02T00:26:12;54.50;;;30.40;;
53483;SDS011;75581;50.088;19.966;2024-03-02T00:28:42;55.00;;;30.30;;
53483;SDS011;75581;50.088;19.966;2024-03-02T00:31:13;52.50;;;30.10;;
53483;SDS011;75581;50.088;19.966;2024-03-02T00:33:43;55.00;;;31.80;;
53483;SDS011;75581;50.088;19.966;2024-03-02T00:36:15;55.70;;;32.30;;
53483;SDS011;75581;50.088;19.966;2024-03-02T00:38:50;53.60;;;29.50;;
53483;SDS011;75581;50.088;19.966;2024-03-02T00:41:23;52.30;;;29.30;;
53483;SDS011;75581;50.088;19.966;2024-03-02T00:46:35;62.50;;;32.90;;
53483;SDS011;75581;50.088;19.966;2024-03-02T00:49:12;56.30;;;31.80;;
53483;SDS011;75581;50.088;19.966;2024-03-02T00:51:53;50.60;;;29.70;;
53483;SDS011;75581;50.088;19.966;2024-03-02T00:54:25;57.80;;;32.40;;
53483;SDS011;75581;50.088;19.966;2024-03-02T00:56:56;52.80;;;30.10;;
53483;SDS011;75581;50.088;19.966;2024-03-02T00:59:26;56.20;;;31.30;;
53483;SDS011;75581;50.088;19.966;2024-03-02T01:01:55;53.30;;;29.90;;
53483;SDS011;75581;50.088;19.966;2024-03-02T01:04:26;51.00;;;29.90;;
53483;SDS011;75581;50.088;19.966;2024-03-02T01:06:55;53.90;;;30.80;;
53483;SDS011;75581;50.088;19.966;2024-03-02T01:09:27;55.80;;;31.80;;
53483;SDS011;75581;50.088;19.966;2024-03-02T01:11:56;57.40;;;31.40;;
53483;SDS011;75581;50.088;19.966;2024-03-02T01:14:25;54.60;;;30.70;;
53483;SDS011;75581;50.088;19.966;2024-03-02T01:16:53;57.20;;;31.70;;
53483;SDS011;75581;50.088;19.966;2024-03-02T01:19:22;53.10;;;31.10;;
53483;SDS011;75581;50.088;19.966;2024-03-02T01:21:51;51.30;;;30.70;;
53483;SDS011;75581;50.088;19.966;2024-03-02T01:24:20;55.30;;;31.40;;
53483;SDS011;75581;50.088;19.966;2024-03-02T01:26:49;58.50;;;32.80;;
53483;SDS011;75581;50.088;19.966;2024-03-02T01:29:19;51.80;;;29.90;;
53483;SDS011;75581;50.088;19.966;2024-03-02T01:31:47;54.30;;;31.00;;
53483;SDS011;75581;50.088;19.966;2024-03-02T01:34:16;58.10;;;33.20;;
53483;SDS011;75581;50.088;19.966;2024-03-02T01:36:45;56.10;;;31.30;;
53483;SDS011;75581;50.088;19.966;2024-03-02T01:39:14;51.50;;;30.00;;
53483;SDS011;75581;50.088;19.966;2024-03-02T01:41:43;53.40;;;30.00;;
53483;SDS011;75581;50.088;19.966;2024-03-02T01:44:12;55.80;;;30.40;;
53483;SDS011;75581;50.088;19.966;2024-03-02T01:46:41;49.20;;;29.80;;
53483;SDS011;75581;50.088;19.966;2024-03-02T01:49:10;50.10;;;30.00;;
53483;SDS011;75581;50.088;19.966;2024-03-02T01:51:39;50.30;;;30.80;;
53483;SDS011;75581;50.088;19.966;2024-03-02T01:54:08;52.90;;;31.40;;
53483;SDS011;75581;50.088;19.966;2024-03-02T01:56:36;52.50;;;30.80;;
53483;SDS011;75581;50.088;19.966;2024-03-02T01:59:05;49.70;;;30.10;;
53483;SDS011;75581;50.088;19.966;2024-03-02T02:01:35;48.40;;;28.60;;
53483;SDS011;75581;50.088;19.966;2024-03-02T02:04:03;53.60;;;30.20;;
53483;SDS011;75581;50.088;19.966;2024-03-02T02:06:34;51.40;;;30.80;;
53483;SDS011;75581;50.088;19.966;2024-03-02T02:09:03;52.90;;;31.00;;
53483;SDS011;75581;50.088;19.966;2024-03-02T02:11:32;57.10;;;31.20;;
53483;SDS011;75581;50.088;19.966;2024-03-02T02:14:01;49.10;;;29.40;;
53483;SDS011;75581;50.088;19.966;2024-03-02T02:16:30;52.60;;;30.30;;
53483;SDS011;75581;50.088;19.966;2024-03-02T02:18:58;53.20;;;30.00;;
53483;SDS011;75581;50.088;19.966;2024-03-02T02:21:28;50.80;;;30.20;;
53483;SDS011;75581;50.088;19.966;2024-03-02T02:23:57;51.10;;;30.20;;
53483;SDS011;75581;50.088;19.966;2024-03-02T02:26:25;53.20;;;30.10;;
53483;SDS011;75581;50.088;19.966;2024-03-02T02:28:55;50.20;;;29.40;;
53483;SDS011;75581;50.088;19.966;2024-03-02T02:31:23;50.40;;;28.70;;
53483;SDS011;75581;50.088;19.966;2024-03-02T02:33:52;54.30;;;30.30;;
53483;SDS011;75581;50.088;19.966;2024-03-02T02:36:22;55.00;;;30.80;;
53483;SDS011;75581;50.088;19.966;2024-03-02T02:38:51;52.90;;;30.40;;
53483;SDS011;75581;50.088;19.966;2024-03-02T02:41:21;50.30;;;30.10;;
53483;SDS011;75581;50.088;19.966;2024-03-02T02:43:49;50.10;;;30.80;;
53483;SDS011;75581;50.088;19.966;2024-03-02T02:46:19;52.10;;;30.20;;
53483;SDS011;75581;50.088;19.966;2024-03-02T02:48:48;54.40;;;31.10;;
53483;SDS011;75581;50.088;19.966;2024-03-02T02:51:17;57.00;;;29.80;;
53483;SDS011;75581;50.088;19.966;2024-03-02T02:53:46;55.90;;;30.40;;
53483;SDS011;75581;50.088;19.966;2024-03-02T02:56:15;53.90;;;29.40;;
53483;SDS011;75581;50.088;19.966;2024-03-02T02:58:44;47.30;;;28.50;;
53483;SDS011;75581;50.088;19.966;2024-03-02T03:01:14;50.00;;;29.40;;
53483;SDS011;75581;50.088;19.966;2024-03-02T03:03:46;48.90;;;28.80;;
53483;SDS011;75581;50.088;19.966;2024-03-02T03:06:16;50.50;;;30.90;;
53483;SDS011;75581;50.088;19.966;2024-03-02T03:08:45;53.20;;;30.20;;
53483;SDS011;75581;50.088;19.966;2024-03-02T03:11:14;52.00;;;30.50;;
53483;SDS011;75581;50.088;19.966;2024-03-02T03:13:43;49.30;;;30.60;;
53483;SDS011;75581;50.088;19.966;2024-03-02T03:16:13;55.40;;;31.20;;
53483;SDS011;75581;50.088;19.966;2024-03-02T03:18:42;49.90;;;29.60;;
53483;SDS011;75581;50.088;19.966;2024-03-02T03:21:11;49.90;;;30.20;;
53483;SDS011;75581;50.088;19.966;2024-03-02T03:23:40;46.20;;;28.50;;
53483;SDS011;75581;50.088;19.966;2024-03-02T03:26:09;50.50;;;29.30;;
53483;SDS011;75581;50.088;19.966;2024-03-02T03:28:38;49.50;;;28.10;;
53483;SDS011;75581;50.088;19.966;2024-03-02T03:31:07;48.00;;;27.70;;
53483;SDS011;75581;50.088;19.966;2024-03-02T03:33:37;45.20;;;27.70;;
53483;SDS011;75581;50.088;19.966;2024-03-02T03:36:06;48.60;;;28.50;;
53483;SDS011;75581;50.088;19.966;2024-03-02T03:38:35;46.80;;;28.10;;
53483;SDS011;75581;50.088;19.966;2024-03-02T03:41:04;48.50;;;27.30;;
53483;SDS011;75581;50.088;19.966;2024-03-02T03:43:35;48.40;;;29.40;;
53483;SDS011;75581;50.088;19.966;2024-03-02T03:46:04;49.50;;;28.60;;
53483;SDS011;75581;50.088;19.966;2024-03-02T03:48:33;48.00;;;27.00;;
53483;SDS011;75581;50.088;19.966;2024-03-02T03:51:02;47.70;;;28.30;;
53483;SDS011;75581;50.088;19.966;2024-03-02T03:53:32;51.40;;;29.10;;
53483;SDS011;75581;50.088;19.966;2024-03-02T03:56:01;47.60;;;27.90;;
53483;SDS011;75581;50.088;19.966;2024-03-02T03:58:30;44.20;;;27.80;;
53483;SDS011;75581;50.088;19.966;2024-03-02T04:00:59;48.20;;;28.50;;
53483;SDS011;75581;50.088;19.966;2024-03-02T04:03:28;47.20;;;29.10;;
53483;SDS011;75581;50.088;19.966;2024-03-02T04:05:59;49.50;;;27.60;;
53483;SDS011;75581;50.088;19.966;2024-03-02T04:08:28;47.00;;;27.00;;
53483;SDS011;75581;50.088;19.966;2024-03-02T04:10:57;46.10;;;25.60;;
53483;SDS011;75581;50.088;19.966;2024-03-02T04:13:26;45.50;;;27.20;;
53483;SDS011;75581;50.088;19.966;2024-03-02T04:15:55;44.60;;;26.40;;
53483;SDS011;75581;50.088;19.966;2024-03-02T04:18:24;46.60;;;26.30;;
53483;SDS011;75581;50.088;19.966;2024-03-02T04:20:53;46.40;;;26.40;;
53483;SDS011;75581;50.088;19.966;2024-03-02T04:23:23;42.90;;;26.30;;
53483;SDS011;75581;50.088;19.966;2024-03-02T04:25:52;44.90;;;27.00;;
53483;SDS011;75581;50.088;19.966;2024-03-02T04:28:20;48.20;;;27.10;;
53483;SDS011;75581;50.088;19.966;2024-03-02T04:30:49;44.20;;;26.40;;
53483;SDS011;75581;50.088;19.966;2024-03-02T04:33:18;42.40;;;26.30;;
53483;SDS011;75581;50.088;19.966;2024-03-02T04:35:47;45.10;;;26.90;;
53483;SDS011;75581;50.088;19.966;2024-03-02T04:38:16;47.90;;;28.40;;
53483;SDS011;75581;50.088;19.966;2024-03-02T04:40:45;48.50;;;27.80;;
53483;SDS011;75581;50.088;19.966;2024-03-02T04:43:14;46.40;;;25.70;;
53483;SDS011;75581;50.088;19.966;2024-03-02T04:45:44;45.00;;;27.50;;
53483;SDS011;75581;50.088;19.966;2024-03-02T04:48:13;42.40;;;25.90;;
53483;SDS011;75581;50.088;19.966;2024-03-02T04:50:43;45.00;;;26.00;;
53483;SDS011;75581;50.088;19.966;2024-03-02T04:53:12;40.70;;;25.40;;
53483;SDS011;75581;50.088;19.966;2024-03-02T04:55:41;47.00;;;26.70;;
53483;SDS011;75581;50.088;19.966;2024-03-02T04:58:09;48.50;;;26.20;;
53483;SDS011;75581;50.088;19.966;2024-03-02T05:00:38;42.70;;;25.40;;
53483;SDS011;75581;50.088;19.966;2024-03-02T05:03:07;46.10;;;25.90;;
53483;SDS011;75581;50.088;19.966;2024-03-02T05:05:36;41.60;;;24.60;;
53483;SDS011;75581;50.088;19.966;2024-03-02T05:08:07;43.00;;;25.90;;
53483;SDS011;75581;50.088;19.966;2024-03-02T05:10:36;40.30;;;24.30;;
53483;SDS011;75581;50.088;19.966;2024-03-02T05:13:05;42.40;;;24.90;;
53483;SDS011;75581;50.088;19.966;2024-03-02T05:15:34;42.40;;;25.40;;
53483;SDS011;75581;50.088;19.966;2024-03-02T05:18:03;42.50;;;25.60;;
53483;SDS011;75581;50.088;19.966;2024-03-02T05:20:33;38.60;;;24.20;;
53483;SDS011;75581;50.088;19.966;2024-03-02T05:23:02;42.50;;;25.60;;
53483;SDS011;75581;50.088;19.966;2024-03-02T05:25:31;44.50;;;26.80;;
53483;SDS011;75581;50.088;19.966;2024-03-02T05:28:00;45.70;;;26.90;;
53483;SDS011;75581;50.088;19.966;2024-03-02T05:30:29;46.90;;;26.10;;
53483;SDS011;75581;50.088;19.966;2024-03-02T05:32:57;43.60;;;26.60;;
53483;SDS011;75581;50.088;19.966;2024-03-02T05:35:26;45.40;;;25.80;;
53483;SDS011;75581;50.088;19.966;2024-03-02T05:37:55;44.80;;;26.00;;
53483;SDS011;75581;50.088;19.966;2024-03-02T05:40:24;43.50;;;25.60;;
53483;SDS011;75581;50.088;19.966;2024-03-02T05:42:52;43.40;;;26.90;;
53483;SDS011;75581;50.088;19.966;2024-03-02T05:45:21;43.10;;;25.70;;
53483;SDS011;75581;50.088;19.966;2024-03-02T05:47:50;47.20;;;27.00;;
53483;SDS011;75581;50.088;19.966;2024-03-02T05:50:19;46.90;;;26.20;;
53483;SDS011;75581;50.088;19.966;2024-03-02T05:52:48;46.60;;;26.00;;
53483;SDS011;75581;50.088;19.966;2024-03-02T05:55:17;42.70;;;26.70;;
53483;SDS011;75581;50.088;19.966;2024-03-02T05:57:45;42.80;;;26.40;;
53483;SDS011;75581;50.088;19.966;2024-03-02T06:00:40;45.60;;;27.90;;
53483;SDS011;75581;50.088;19.966;2024-03-02T06:03:09;46.70;;;26.30;;
53483;SDS011;75581;50.088;19.966;2024-03-02T06:05:39;47.90;;;26.80;;
53483;SDS011;75581;50.088;19.966;2024-03-02T06:08:09;47.40;;;26.70;;
53483;SDS011;75581;50.088;19.966;2024-03-02T06:10:38;44.20;;;27.20;;
53483;SDS011;75581;50.088;19.966;2024-03-02T06:13:07;43.00;;;26.80;;
53483;SDS011;75581;50.088;19.966;2024-03-02T06:15:35;47.40;;;26.80;;
53483;SDS011;75581;50.088;19.966;2024-03-02T06:18:04;46.00;;;26.60;;
53483;SDS011;75581;50.088;19.966;2024-03-02T06:20:35;41.70;;;24.80;;
53483;SDS011;75581;50.088;19.966;2024-03-02T06:23:05;45.50;;;25.60;;
53483;SDS011;75581;50.088;19.966;2024-03-02T06:25:34;41.60;;;26.00;;
53483;SDS011;75581;50.088;19.966;2024-03-02T06:28:02;41.40;;;25.30;;
53483;SDS011;75581;50.088;19.966;2024-03-02T06:30:32;41.00;;;24.70;;
53483;SDS011;75581;50.088;19.966;2024-03-02T06:33:01;45.00;;;26.60;;
53483;SDS011;75581;50.088;19.966;2024-03-02T06:35:32;42.30;;;25.00;;
53483;SDS011;75581;50.088;19.966;2024-03-02T06:38:01;42.30;;;25.80;;
53483;SDS011;75581;50.088;19.966;2024-03-02T06:40:30;43.70;;;25.60;;
53483;SDS011;75581;50.088;19.966;2024-03-02T06:42:59;42.60;;;26.10;;
53483;SDS011;75581;50.088;19.966;2024-03-02T06:45:29;41.50;;;25.30;;
53483;SDS011;75581;50.088;19.966;2024-03-02T06:47:59;44.40;;;24.30;;
53483;SDS011;75581;50.088;19.966;2024-03-02T06:50:27;43.60;;;25.30;;
53483;SDS011;75581;50.088;19.966;2024-03-02T06:52:58;44.90;;;26.40;;
53483;SDS011;75581;50.088;19.966;2024-03-02T06:55:28;43.20;;;24.60;;
53483;SDS011;75581;50.088;19.966;2024-03-02T06:57:58;41.80;;;25.90;;
53483;SDS011;75581;50.088;19.966;2024-03-02T07:00:27;45.30;;;24.80;;
53483;SDS011;75581;50.088;19.966;2024-03-02T07:02:56;46.70;;;25.00;;
53483;SDS011;75581;50.088;19.966;2024-03-02T07:05:25;41.20;;;25.30;;
53483;SDS011;75581;50.088;19.966;2024-03-02T07:07:54;40.80;;;24.30;;
53483;SDS011;75581;50.088;19.966;2024-03-02T07:10:23;42.70;;;23.80;;
53483;SDS011;75581;50.088;19.966;2024-03-02T07:12:52;41.50;;;24.20;;
53483;SDS011;75581;50.088;19.966;2024-03-02T07:15:21;46.20;;;24.70;;
53483;SDS011;75581;50.088;19.966;2024-03-02T07:18:07;38.50;;;23.40;;
53483;SDS011;75581;50.088;19.966;2024-03-02T07:20:36;41.70;;;23.90;;
53483;SDS011;75581;50.088;19.966;2024-03-02T07:23:07;44.30;;;23.20;;
53483;SDS011;75581;50.088;19.966;2024-03-02T07:25:36;40.20;;;22.90;;
53483;SDS011;75581;50.088;19.966;2024-03-02T07:28:08;39.20;;;23.80;;
53483;SDS011;75581;50.088;19.966;2024-03-02T07:30:37;35.40;;;21.60;;
53483;SDS011;75581;50.088;19.966;2024-03-02T07:33:07;40.00;;;21.90;;
53483;SDS011;75581;50.088;19.966;2024-03-02T07:35:36;38.60;;;22.70;;
53483;SDS011;75581;50.088;19.966;2024-03-02T07:38:05;42.30;;;23.20;;
53483;SDS011;75581;50.088;19.966;2024-03-02T07:40:35;35.80;;;22.70;;
53483;SDS011;75581;50.088;19.966;2024-03-02T07:43:04;36.30;;;22.50;;
53483;SDS011;75581;50.088;19.966;2024-03-02T07:45:33;38.20;;;23.80;;
53483;SDS011;75581;50.088;19.966;2024-03-02T07:48:02;38.80;;;22.80;;
53483;SDS011;75581;50.088;19.966;2024-03-02T07:50:34;39.10;;;22.60;;
53483;SDS011;75581;50.088;19.966;2024-03-02T07:53:03;38.90;;;23.70;;
53483;SDS011;75581;50.088;19.966;2024-03-02T07:55:32;41.20;;;23.20;;
53483;SDS011;75581;50.088;19.966;2024-03-02T07:58:01;40.80;;;23.10;;
53483;SDS011;75581;50.088;19.966;2024-03-02T08:00:30;36.50;;;22.30;;
53483;SDS011;75581;50.088;19.966;2024-03-02T08:02:59;38.50;;;23.20;;
53483;SDS011;75581;50.088;19.966;2024-03-02T08:05:29;34.40;;;22.10;;
53483;SDS011;75581;50.088;19.966;2024-03-02T08:07:58;40.10;;;23.40;;
53483;SDS011;75581;50.088;19.966;2024-03-02T08:10:27;37.80;;;23.90;;
53483;SDS011;75581;50.088;19.966;2024-03-02T08:12:56;35.30;;;21.20;;
53483;SDS011;75581;50.088;19.966;2024-03-02T08:15:25;37.60;;;22.80;;
53483;SDS011;75581;50.088;19.966;2024-03-02T08:17:54;43.40;;;22.80;;
53483;SDS011;75581;50.088;19.966;2024-03-02T08:20:24;43.20;;;23.80;;
53483;SDS011;75581;50.088;19.966;2024-03-02T08:22:54;38.80;;;23.50;;
53483;SDS011;75581;50.088;19.966;2024-03-02T08:25:23;40.20;;;24.20;;
53483;SDS011;75581;50.088;19.966;2024-03-02T08:27:52;40.30;;;23.30;;
53483;SDS011;75581;50.088;19.966;2024-03-02T08:30:21;39.80;;;23.30;;
53483;SDS011;75581;50.088;19.966;2024-03-02T08:32:50;45.20;;;24.40;;
53483;SDS011;75581;50.088;19.966;2024-03-02T08:35:21;38.50;;;22.00;;
53483;SDS011;75581;50.088;19.966;2024-03-02T08:37:52;35.20;;;21.90;;
53483;SDS011;75581;50.088;19.966;2024-03-02T08:40:21;39.90;;;22.90;;
53483;SDS011;75581;50.088;19.966;2024-03-02T08:42:50;38.10;;;22.60;;
53483;SDS011;75581;50.088;19.966;2024-03-02T08:45:19;40.10;;;23.00;;
53483;SDS011;75581;50.088;19.966;2024-03-02T08:47:49;40.50;;;22.90;;
53483;SDS011;75581;50.088;19.966;2024-03-02T08:50:18;39.90;;;23.70;;
53483;SDS011;75581;50.088;19.966;2024-03-02T08:52:47;39.70;;;23.60;;
53483;SDS011;75581;50.088;19.966;2024-03-02T08:55:16;38.10;;;22.60;;
53483;SDS011;75581;50.088;19.966;2024-03-02T08:57:45;36.50;;;22.40;;
53483;SDS011;75581;50.088;19.966;2024-03-02T09:00:15;44.90;;;25.20;;
53483;SDS011;75581;50.088;19.966;2024-03-02T09:02:45;44.40;;;25.00;;
53483;SDS011;75581;50.088;19.966;2024-03-02T09:05:14;37.70;;;23.60;;
53483;SDS011;75581;50.088;19.966;2024-03-02T09:07:44;40.00;;;23.50;;
53483;SDS011;75581;50.088;19.966;2024-03-02T09:10:13;43.70;;;24.60;;
53483;SDS011;75581;50.088;19.966;2024-03-02T09:12:42;43.10;;;24.40;;
53483;SDS011;75581;50.088;19.966;2024-03-02T09:15:12;43.00;;;23.50;;
53483;SDS011;75581;50.088;19.966;2024-03-02T09:17:41;42.10;;;24.50;;
53483;SDS011;75581;50.088;19.966;2024-03-02T09:20:10;43.00;;;25.20;;
53483;SDS011;75581;50.088;19.966;2024-03-02T09:22:39;41.70;;;25.20;;
53483;SDS011;75581;50.088;19.966;2024-03-02T09:25:09;43.30;;;24.40;;
53483;SDS011;75581;50.088;19.966;2024-03-02T09:27:39;43.00;;;24.90;;
53483;SDS011;75581;50.088;19.966;2024-03-02T09:30:08;45.20;;;25.20;;
53483;SDS011;75581;50.088;19.966;2024-03-02T09:32:38;38.20;;;24.70;;
53483;SDS011;75581;50.088;19.966;2024-03-02T09:35:08;43.70;;;25.30;;
53483;SDS011;75581;50.088;19.966;2024-03-02T09:37:40;43.80;;;26.00;;
53483;SDS011;75581;50.088;19.966;2024-03-02T09:40:11;44.10;;;25.00;;
53483;SDS011;75581;50.088;19.966;2024-03-02T09:42:40;43.40;;;26.00;;
53483;SDS011;75581;50.088;19.966;2024-03-02T09:45:10;39.70;;;25.20;;
53483;SDS011;75581;50.088;19.966;2024-03-02T09:47:39;41.50;;;25.30;;
53483;SDS011;75581;50.088;19.966;2024-03-02T09:50:08;42.20;;;25.70;;
53483;SDS011;75581;50.088;19.966;2024-03-02T09:52:37;45.00;;;26.40;;
53483;SDS011;75581;50.088;19.966;2024-03-02T09:55:08;49.30;;;24.90;;
53483;SDS011;75581;50.088;19.966;2024-03-02T09:57:37;45.90;;;26.00;;
53483;SDS011;75581;50.088;19.966;2024-03-02T10:00:08;44.80;;;26.60;;
53483;SDS011;75581;50.088;19.966;2024-03-02T10:02:43;37.20;;;23.50;;
53483;SDS011;75581;50.088;19.966;2024-03-02T10:05:12;45.90;;;26.70;;
53483;SDS011;75581;50.088;19.966;2024-03-02T10:07:41;43.70;;;26.10;;
53483;SDS011;75581;50.088;19.966;2024-03-02T10:10:14;41.80;;;25.00;;
53483;SDS011;75581;50.088;19.966;2024-03-02T10:12:43;42.50;;;26.00;;
53483;SDS011;75581;50.088;19.966;2024-03-02T10:15:12;45.60;;;25.70;;
53483;SDS011;75581;50.088;19.966;2024-03-02T10:17:41;38.60;;;23.60;;
53483;SDS011;75581;50.088;19.966;2024-03-02T10:20:25;45.40;;;24.70;;
53483;SDS011;75581;50.088;19.966;2024-03-02T10:23:09;40.00;;;23.50;;
53483;SDS011;75581;50.088;19.966;2024-03-02T10:25:41;38.50;;;22.10;;
53483;SDS011;75581;50.088;19.966;2024-03-02T10:28:25;40.30;;;23.50;;
53483;SDS011;75581;50.088;19.966;2024-03-02T10:30:56;39.30;;;24.00;;
53483;SDS011;75581;50.088;19.966;2024-03-02T10:33:26;39.00;;;23.30;;
53483;SDS011;75581;50.088;19.966;2024-03-02T10:35:56;38.30;;;22.50;;
53483;SDS011;75581;50.088;19.966;2024-03-02T10:38:25;38.00;;;22.90;;
53483;SDS011;75581;50.088;19.966;2024-03-02T10:40:55;41.30;;;24.20;;
53483;SDS011;75581;50.088;19.966;2024-03-02T10:43:28;35.00;;;22.40;;
53483;SDS011;75581;50.088;19.966;2024-03-02T10:45:57;36.70;;;22.10;;
53483;SDS011;75581;50.088;19.966;2024-03-02T10:48:26;42.60;;;24.30;;
53483;SDS011;75581;50.088;19.966;2024-03-02T10:50:56;38.30;;;24.40;;
53483;SDS011;75581;50.088;19.966;2024-03-02T10:53:29;44.80;;;26.00;;
53483;SDS011;75581;50.088;19.966;2024-03-02T10:55:59;40.00;;;25.40;;
53483;SDS011;75581;50.088;19.966;2024-03-02T10:58:34;44.40;;;26.30;;
53483;SDS011;75581;50.088;19.966;2024-03-02T11:01:04;44.60;;;25.30;;
53483;SDS011;75581;50.088;19.966;2024-03-02T11:03:36;41.00;;;25.30;;
53483;SDS011;75581;50.088;19.966;2024-03-02T11:06:08;39.80;;;25.80;;
53483;SDS011;75581;50.088;19.966;2024-03-02T11:08:38;42.30;;;24.00;;
53483;SDS011;75581;50.088;19.966;2024-03-02T11:11:14;42.90;;;25.60;;
53483;SDS011;75581;50.088;19.966;2024-03-02T11:13:49;43.30;;;26.00;;
53483;SDS011;75581;50.088;19.966;2024-03-02T11:16:30;43.10;;;26.10;;
53483;SDS011;75581;50.088;19.966;2024-03-02T11:19:05;42.70;;;25.10;;
53483;SDS011;75581;50.088;19.966;2024-03-02T11:21:40;46.40;;;26.10;;
53483;SDS011;75581;50.088;19.966;2024-03-02T11:24:30;40.90;;;25.20;;
53483;SDS011;75581;50.088;19.966;2024-03-02T11:27:05;41.70;;;24.70;;
53483;SDS011;75581;50.088;19.966;2024-03-02T11:32:14;40.00;;;24.90;;
53483;SDS011;75581;50.088;19.966;2024-03-02T11:34:44;45.80;;;25.00;;
53483;SDS011;75581;50.088;19.966;2024-03-02T11:37:18;42.70;;;25.50;;
53483;SDS011;75581;50.088;19.966;2024-03-02T11:39:51;44.00;;;25.20;;
53483;SDS011;75581;50.088;19.966;2024-03-02T11:42:20;42.80;;;24.70;;
53483;SDS011;75581;50.088;19.966;2024-03-02T11:44:49;44.40;;;24.70;;
53483;SDS011;75581;50.088;19.966;2024-03-02T11:47:18;40.70;;;25.50;;
53483;SDS011;75581;50.088;19.966;2024-03-02T11:49:49;40.50;;;23.60;;
53483;SDS011;75581;50.088;19.966;2024-03-02T11:52:20;48.20;;;27.70;;
53483;SDS011;75581;50.088;19.966;2024-03-02T11:54:50;43.70;;;27.30;;
53483;SDS011;75581;50.088;19.966;2024-03-02T11:57:20;41.40;;;26.60;;
53483;SDS011;75581;50.088;19.966;2024-03-02T11:59:54;44.40;;;27.00;;
53483;SDS011;75581;50.088;19.966;2024-03-02T12:02:26;48.30;;;29.20;;
53483;SDS011;75581;50.088;19.966;2024-03-02T12:04:55;42.70;;;27.00;;
53483;SDS011;75581;50.088;19.966;2024-03-02T12:07:25;46.10;;;26.80;;
53483;SDS011;75581;50.088;19.966;2024-03-02T12:10:01;46.70;;;27.80;;
53483;SDS011;75581;50.088;19.966;2024-03-02T12:12:31;48.10;;;27.70;;
53483;SDS011;75581;50.088;19.966;2024-03-02T12:15:00;44.50;;;26.60;;
53483;SDS011;75581;50.088;19.966;2024-03-02T12:17:29;45.20;;;27.90;;
53483;SDS011;75581;50.088;19.966;2024-03-02T12:19:58;51.10;;;28.30;;
53483;SDS011;75581;50.088;19.966;2024-03-02T12:22:27;46.30;;;26.80;;
53483;SDS011;75581;50.088;19.966;2024-03-02T12:24:57;45.50;;;26.40;;
53483;SDS011;75581;50.088;19.966;2024-03-02T12:27:26;45.00;;;26.60;;
53483;SDS011;75581;50.088;19.966;2024-03-02T12:29:55;42.30;;;25.10;;
53483;SDS011;75581;50.088;19.966;2024-03-02T12:32:24;43.60;;;25.70;;
53483;SDS011;75581;50.088;19.966;2024-03-02T12:34:53;42.10;;;26.10;;
53483;SDS011;75581;50.088;19.966;2024-03-02T12:37:23;46.10;;;28.50;;
53483;SDS011;75581;50.088;19.966;2024-03-02T12:39:52;45.90;;;28.90;;
53483;SDS011;75581;50.088;19.966;2024-03-02T12:42:24;49.40;;;30.00;;
53483;SDS011;75581;50.088;19.966;2024-03-02T12:44:53;47.10;;;30.40;;
53483;SDS011;75581;50.088;19.966;2024-03-02T12:47:25;53.90;;;31.10;;
53483;SDS011;75581;50.088;19.966;2024-03-02T12:49:54;45.40;;;28.90;;
53483;SDS011;75581;50.088;19.966;2024-03-02T12:52:24;48.50;;;29.90;;
53483;SDS011;75581;50.088;19.966;2024-03-02T12:54:53;49.60;;;29.70;;
53483;SDS011;75581;50.088;19.966;2024-03-02T12:57:27;52.80;;;30.40;;
53483;SDS011;75581;50.088;19.966;2024-03-02T13:00:04;53.70;;;30.50;;
53483;SDS011;75581;50.088;19.966;2024-03-02T13:02:39;46.50;;;28.60;;
53483;SDS011;75581;50.088;19.966;2024-03-02T13:05:09;46.90;;;28.70;;
53483;SDS011;75581;50.088;19.966;2024-03-02T13:07:39;45.30;;;28.00;;
53483;SDS011;75581;50.088;19.966;2024-03-02T13:10:13;43.60;;;26.90;;
53483;SDS011;75581;50.088;19.966;2024-03-02T13:12:42;42.40;;;25.10;;
53483;SDS011;75581;50.088;19.966;2024-03-02T13:15:11;42.50;;;26.70;;
53483;SDS011;75581;50.088;19.966;2024-03-02T13:17:45;46.30;;;27.50;;
53483;SDS011;75581;50.088;19.966;2024-03-02T13:20:14;40.80;;;26.50;;
53483;SDS011;75581;50.088;19.966;2024-03-02T13:22:44;43.90;;;26.60;;
53483;SDS011;75581;50.088;19.966;2024-03-02T13:25:13;46.00;;;26.50;;
53483;SDS011;75581;50.088;19.966;2024-03-02T13:27:43;43.60;;;27.60;;
53483;SDS011;75581;50.088;19.966;2024-03-02T13:30:12;52.40;;;28.80;;
53483;SDS011;75581;50.088;19.966;2024-03-02T13:32:41;51.00;;;27.00;;
53483;SDS011;75581;50.088;19.966;2024-03-02T13:35:09;40.90;;;27.40;;
53483;SDS011;75581;50.088;19.966;2024-03-02T13:37:39;51.80;;;31.30;;
53483;SDS011;75581;50.088;19.966;2024-03-02T13:40:10;54.20;;;30.60;;
53483;SDS011;75581;50.088;19.966;2024-03-02T13:42:42;49.80;;;30.50;;
53483;SDS011;75581;50.088;19.966;2024-03-02T13:45:11;54.20;;;32.70;;
53483;SDS011;75581;50.088;19.966;2024-03-02T13:47:41;52.70;;;30.80;;
53483;SDS011;75581;50.088;19.966;2024-03-02T13:50:11;53.00;;;31.60;;
53483;SDS011;75581;50.088;19.966;2024-03-02T13:52:39;50.00;;;30.50;;
53483;SDS011;75581;50.088;19.966;2024-03-02T13:55:08;54.30;;;31.10;;
53483;SDS011;75581;50.088;19.966;2024-03-02T13:57:37;53.90;;;32.40;;
53483;SDS011;75581;50.088;19.966;2024-03-02T14:00:07;56.50;;;33.20;;
53483;SDS011;75581;50.088;19.966;2024-03-02T14:02:40;53.50;;;32.60;;
53483;SDS011;75581;50.088;19.966;2024-03-02T14:05:09;50.60;;;30.80;;
53483;SDS011;75581;50.088;19.966;2024-03-02T14:07:40;56.40;;;31.60;;
53483;SDS011;75581;50.088;19.966;2024-03-02T14:10:10;47.70;;;29.10;;
53483;SDS011;75581;50.088;19.966;2024-03-02T14:12:40;49.00;;;30.30;;
53483;SDS011;75581;50.088;19.966;2024-03-02T14:15:10;74.30;;;36.50;;
53483;SDS011;75581;50.088;19.966;2024-03-02T14:17:39;50.00;;;29.60;;
53483;SDS011;75581;50.088;19.966;2024-03-02T14:20:08;46.20;;;26.70;;
53483;SDS011;75581;50.088;19.966;2024-03-02T14:22:40;41.60;;;27.00;;
53483;SDS011;75581;50.088;19.966;2024-03-02T14:25:09;46.50;;;28.70;;
53483;SDS011;75581;50.088;19.966;2024-03-02T14:27:39;48.50;;;28.30;;
53483;SDS011;75581;50.088;19.966;2024-03-02T14:30:28;46.60;;;28.40;;